Time;durP1;ratioP1;P1;durP2;ratioP2;P2;SDS_P1;SDS_P2;PMS_P1;PMS_P2;Temp;Humidity;BMP_temperature;BMP_pressure;BME280_temperature;BME280_humidity;BME280_pressure;Samples;Min_cycle;Max_cycle;Signal;HPM_P1;HPM_P2
2020/12/15 00:00:07;;;;;;;8.25;5.95;;;6.50;99.90;;;;;;4995545;28;20599;-52
2020/12/15 00:02:35;;;;;;;13.63;7.85;;;6.40;99.90;;;;;;4995394;28;20190;-51
2020/12/15 00:05:03;;;;;;;9.32;6.05;;;6.40;99.90;;;;;;4995270;28;20211;-51
2020/12/15 00:07:30;;;;;;;9.45;6.35;;;6.40;99.90;;;;;;4995488;28;20186;-52
2020/12/15 00:09:57;;;;;;;9.88;6.95;;;6.40;99.90;;;;;;4995454;28;20187;-53
2020/12/15 00:12:24;;;;;;;8.35;5.55;;;6.30;99.90;;;;;;4995199;28;20190;-54
2020/12/15 00:14:51;;;;;;;7.55;6.25;;;6.30;99.90;;;;;;4995049;28;20733;-52
2020/12/15 00:17:18;;;;;;;11.57;6.93;;;6.30;99.90;;;;;;4995244;28;20237;-54
2020/12/15 00:19:47;;;;;;;9.68;5.97;;;6.20;99.90;;;;;;4995089;28;20244;-51
2020/12/15 00:22:14;;;;;;;15.35;8.32;;;6.10;99.90;;;;;;4995181;28;20191;-52
2020/12/15 00:24:41;;;;;;;8.50;5.57;;;6.20;99.90;;;;;;4994795;28;20213;-56
2020/12/15 00:27:09;;;;;;;10.55;6.45;;;6.10;99.90;;;;;;4995550;28;20186;-53
2020/12/15 00:29:36;;;;;;;9.43;6.63;;;6.20;99.90;;;;;;4994893;28;20171;-56
2020/12/15 00:32:03;;;;;;;9.05;6.40;;;6.20;99.90;;;;;;4993871;28;20195;-55
2020/12/15 00:34:31;;;;;;;7.18;5.80;;;6.20;99.90;;;;;;4994171;28;20183;-50
2020/12/15 00:37:03;;;;;;;7.00;5.80;;;6.10;99.90;;;;;;4994687;28;20218;-56
2020/12/15 00:39:30;;;;;;;9.20;6.30;;;6.10;99.90;;;;;;4994582;28;20206;-56
2020/12/15 00:41:57;;;;;;;10.57;7.05;;;6.10;99.90;;;;;;4994627;28;20274;-56
2020/12/15 00:44:24;;;;;;;12.77;8.60;;;6.10;99.90;;;;;;4994115;28;20246;-53
2020/12/15 00:46:51;;;;;;;10.13;7.07;;;6.10;99.90;;;;;;4994285;28;20722;-54
2020/12/15 00:49:19;;;;;;;7.35;6.03;;;6.10;99.90;;;;;;4994329;28;20208;-51
2020/12/15 00:51:47;;;;;;;10.45;6.35;;;6.10;99.90;;;;;;4994433;28;20183;-51
2020/12/15 00:54:15;;;;;;;9.65;6.53;;;6.10;99.90;;;;;;4979104;28;20285;-56
2020/12/15 00:56:42;;;;;;;7.53;6.47;;;6.00;99.90;;;;;;4993717;28;20284;-54
2020/12/15 00:59:11;;;;;;;9.48;6.72;;;6.00;99.90;;;;;;4982221;28;20231;-54
2020/12/15 01:01:39;;;;;;;8.60;7.03;;;6.00;99.90;;;;;;4956897;28;20203;-52
2020/12/15 01:04:08;;;;;;;10.52;6.70;;;6.00;99.90;;;;;;4956956;28;20219;-51
2020/12/15 01:06:35;;;;;;;14.65;7.43;;;6.00;99.90;;;;;;4956992;28;20241;-51
2020/12/15 01:09:05;;;;;;;10.82;6.78;;;6.00;99.90;;;;;;4957544;28;20180;-56
2020/12/15 01:11:34;;;;;;;7.65;6.45;;;6.00;99.90;;;;;;4957476;28;20191;-51
2020/12/15 01:14:07;;;;;;;11.68;7.18;;;6.00;99.90;;;;;;4957941;28;20567;-56
2020/12/15 01:16:40;;;;;;;10.02;7.90;;;5.90;99.90;;;;;;4957604;28;20306;-55
2020/12/15 01:19:08;;;;;;;7.88;7.07;;;6.00;99.90;;;;;;4957078;28;20251;-51
2020/12/15 01:21:38;;;;;;;13.00;8.00;;;5.90;99.90;;;;;;4957057;28;20191;-56
2020/12/15 01:24:06;;;;;;;8.98;5.70;;;5.80;99.90;;;;;;4957259;28;20195;-55
2020/12/15 01:26:51;;;;;;;7.15;6.18;;;5.80;99.90;;;;;;4957444;28;20712;-54
2020/12/15 01:29:19;;;;;;;10.75;7.20;;;5.80;99.90;;;;;;4956590;28;20664;-56
2020/12/15 01:31:46;;;;;;;12.88;7.00;;;5.80;99.90;;;;;;4957400;28;20195;-57
2020/12/15 01:34:22;;;;;;;9.80;5.45;;;5.70;99.90;;;;;;4957566;28;20195;-56
2020/12/15 01:36:54;;;;;;;14.25;8.60;;;5.70;99.90;;;;;;4974192;28;20278;-51
2020/12/15 01:39:24;;;;;;;12.35;7.38;;;5.70;99.90;;;;;;4973537;28;20579;-50
2020/12/15 01:42:00;;;;;;;10.38;7.05;;;5.70;99.90;;;;;;4955795;28;20191;-52
2020/12/15 01:44:27;;;;;;;11.10;9.02;;;5.70;99.90;;;;;;4973199;28;20254;-50
2020/12/15 01:46:56;;;;;;;8.93;6.78;;;5.70;99.90;;;;;;4958065;28;20557;-57
2020/12/15 01:49:31;;;;;;;11.43;6.85;;;5.70;99.90;;;;;;4976612;28;20729;-52
2020/12/15 01:52:01;;;;;;;11.20;6.93;;;5.70;99.90;;;;;;4982736;28;20597;-52
2020/12/15 01:54:44;;;;;;;11.80;8.10;;;5.70;99.90;;;;;;4971115;28;20209;-52
2020/12/15 01:57:14;;;;;;;12.30;7.53;;;5.70;99.90;;;;;;4974981;28;20221;-50
2020/12/15 01:59:52;;;;;;;11.55;8.40;;;5.70;99.90;;;;;;4975187;28;20580;-52
2020/12/15 02:02:23;;;;;;;13.45;8.02;;;5.60;99.90;;;;;;4977290;28;20199;-54
2020/12/15 02:04:57;;;;;;;7.40;5.90;;;5.60;99.90;;;;;;4974647;28;20730;-52
2020/12/15 02:07:26;;;;;;;8.38;6.38;;;5.70;99.90;;;;;;4993232;28;20245;-57
2020/12/15 02:09:58;;;;;;;11.85;7.22;;;5.70;99.90;;;;;;4975719;28;20187;-53
2020/12/15 02:12:48;;;;;;;7.93;6.18;;;5.70;99.90;;;;;;4992868;28;20213;-50
2020/12/15 02:15:17;;;;;;;10.98;6.78;;;5.70;99.90;;;;;;4975329;28;20301;-55
2020/12/15 02:17:51;;;;;;;10.70;8.18;;;5.70;99.90;;;;;;4993462;28;20555;-54
2020/12/15 02:20:24;;;;;;;7.82;6.35;;;5.70;99.90;;;;;;4975391;28;20778;-53
2020/12/15 02:23:11;;;;;;;11.02;5.88;;;5.60;99.90;;;;;;4992593;28;20657;-52
2020/12/15 02:25:45;;;;;;;12.73;7.15;;;5.70;99.90;;;;;;4975034;28;20214;-51
2020/12/15 02:28:13;;;;;;;9.27;7.35;;;5.60;99.90;;;;;;4975647;28;20226;-54
2020/12/15 02:30:40;;;;;;;9.30;6.25;;;5.60;99.90;;;;;;4975009;28;20206;-52
2020/12/15 02:33:20;;;;;;;11.18;7.13;;;5.70;99.90;;;;;;4992368;28;20198;-52
2020/12/15 02:35:47;;;;;;;12.88;8.27;;;5.60;99.90;;;;;;4974813;28;20218;-52
2020/12/15 02:38:15;;;;;;;7.18;6.45;;;5.50;99.90;;;;;;4992693;28;20254;-51
2020/12/15 02:40:43;;;;;;;10.77;6.35;;;5.50;99.90;;;;;;4974600;28;20715;-55
2020/12/15 02:43:13;;;;;;;9.65;7.18;;;5.50;99.90;;;;;;4992732;28;20281;-55
2020/12/15 02:45:47;;;;;;;8.38;6.72;;;5.50;99.90;;;;;;4974787;28;20211;-50
2020/12/15 02:48:19;;;;;;;13.57;7.65;;;5.40;99.90;;;;;;4974875;28;20221;-51
2020/12/15 02:50:48;;;;;;;10.45;6.50;;;5.40;99.90;;;;;;4992718;28;20249;-53
2020/12/15 02:53:29;;;;;;;9.23;7.38;;;5.40;99.90;;;;;;4974890;28;20558;-52
2020/12/15 02:56:00;;;;;;;10.18;7.30;;;5.40;99.90;;;;;;4973891;28;20214;-53
2020/12/15 02:58:39;;;;;;;9.23;6.38;;;5.40;99.90;;;;;;4974414;28;20575;-54
2020/12/15 03:01:08;;;;;;;10.05;7.43;;;5.30;99.90;;;;;;4974217;28;20269;-57
2020/12/15 03:03:35;;;;;;;11.52;9.38;;;5.30;99.90;;;;;;4992024;28;20197;-54
2020/12/15 03:06:20;;;;;;;11.77;7.28;;;5.30;99.90;;;;;;4974258;28;20218;-54
2020/12/15 03:08:51;;;;;;;11.85;7.65;;;5.30;99.90;;;;;;4974484;28;20575;-53
2020/12/15 03:11:22;;;;;;;10.40;6.28;;;5.30;99.90;;;;;;4974493;28;20201;-53
2020/12/15 03:13:54;;;;;;;12.85;7.97;;;5.30;99.90;;;;;;4975371;28;20199;-50
2020/12/15 03:16:21;;;;;;;11.30;7.60;;;5.30;99.90;;;;;;4974361;28;20233;-50
2020/12/15 03:18:49;;;;;;;11.40;6.28;;;5.30;99.90;;;;;;4974332;28;20195;-54
2020/12/15 03:21:20;;;;;;;10.38;6.82;;;5.30;99.90;;;;;;4973914;28;20221;-54
2020/12/15 03:23:48;;;;;;;10.60;7.75;;;5.40;99.90;;;;;;4974379;28;20198;-55
2020/12/15 03:26:17;;;;;;;11.10;7.53;;;5.40;99.90;;;;;;4974135;28;20293;-53
2020/12/15 03:28:45;;;;;;;9.38;6.18;;;5.40;99.90;;;;;;4974238;28;20198;-48
2020/12/15 03:31:12;;;;;;;8.80;7.65;;;5.40;99.90;;;;;;4991724;28;20198;-53
2020/12/15 03:33:40;;;;;;;11.50;7.88;;;5.50;99.90;;;;;;4974278;28;20210;-51
2020/12/15 03:36:11;;;;;;;13.48;8.75;;;5.50;99.90;;;;;;4974070;28;20222;-56
2020/12/15 03:38:42;;;;;;;7.55;6.75;;;5.50;99.90;;;;;;4974242;28;20236;-52
2020/12/15 03:41:10;;;;;;;10.40;7.18;;;5.50;99.90;;;;;;4974193;28;20305;-53
2020/12/15 03:43:53;;;;;;;8.95;6.10;;;5.40;99.90;;;;;;4974298;28;20199;-54
2020/12/15 03:46:36;;;;;;;7.18;6.43;;;5.40;99.90;;;;;;4974151;28;20224;-50
2020/12/15 03:49:06;;;;;;;14.52;9.82;;;5.40;99.90;;;;;;4974129;28;20197;-54
2020/12/15 03:51:39;;;;;;;8.52;6.32;;;5.30;99.90;;;;;;4991815;28;20176;-56
2020/12/15 03:54:26;;;;;;;10.85;7.45;;;5.30;99.90;;;;;;4961160;28;20281;-55
2020/12/15 03:57:16;;;;;;;10.02;8.00;;;5.30;99.90;;;;;;4978303;28;20206;-53
2020/12/15 04:00:05;;;;;;;8.82;7.38;;;5.40;99.90;;;;;;4951641;28;20221;-53
2020/12/15 04:02:39;;;;;;;10.27;6.82;;;5.40;99.90;;;;;;4991968;28;20197;-54
2020/12/15 04:05:18;;;;;;;10.95;7.80;;;5.40;99.90;;;;;;4974074;28;20269;-52
2020/12/15 04:07:48;;;;;;;13.68;7.32;;;5.40;99.90;;;;;;4976255;28;20241;-50
2020/12/15 04:10:17;;;;;;;9.57;8.10;;;5.40;99.90;;;;;;4977307;28;20186;-52
2020/12/15 04:12:52;;;;;;;11.25;7.75;;;5.40;99.90;;;;;;4994981;28;20679;-52
2020/12/15 04:15:20;;;;;;;16.02;8.50;;;5.40;99.90;;;;;;4977107;28;20214;-55
2020/12/15 04:17:48;;;;;;;11.18;8.48;;;5.40;99.90;;;;;;4977723;28;20253;-52
2020/12/15 04:20:15;;;;;;;13.68;7.63;;;5.40;99.90;;;;;;4977431;28;20207;-53
2020/12/15 04:22:44;;;;;;;11.05;7.60;;;5.40;99.90;;;;;;4977254;28;20564;-50
2020/12/15 04:25:11;;;;;;;11.90;7.90;;;5.40;99.90;;;;;;4977400;28;20215;-54
2020/12/15 04:27:42;;;;;;;14.90;7.60;;;5.30;99.90;;;;;;4976980;28;20195;-51
2020/12/15 04:30:10;;;;;;;10.38;6.72;;;5.30;99.90;;;;;;4977190;28;20190;-54
2020/12/15 04:32:38;;;;;;;8.15;7.30;;;5.30;99.90;;;;;;4976950;28;20191;-50
2020/12/15 04:35:12;;;;;;;14.18;7.10;;;5.20;99.90;;;;;;4976956;28;20221;-49
2020/12/15 04:37:42;;;;;;;14.07;8.32;;;5.00;99.90;;;;;;4976990;28;20203;-54
2020/12/15 04:40:12;;;;;;;10.48;9.32;;;5.00;99.90;;;;;;4976794;28;20527;-52
2020/12/15 04:42:46;;;;;;;15.55;10.63;;;5.00;99.90;;;;;;4976733;28;20201;-53
2020/12/15 04:45:16;;;;;;;13.07;7.70;;;5.00;99.90;;;;;;4976787;28;20283;-49
2020/12/15 04:47:54;;;;;;;10.18;7.72;;;4.90;99.90;;;;;;4976866;28;20226;-49
2020/12/15 04:50:45;;;;;;;8.60;7.05;;;4.80;99.90;;;;;;4993948;28;20289;-52
2020/12/15 04:53:19;;;;;;;11.85;7.28;;;4.80;99.90;;;;;;4976562;28;20230;-54
2020/12/15 04:56:26;;;;;;;12.30;7.75;;;4.80;99.90;;;;;;4954153;28;20223;-54
2020/12/15 04:58:57;;;;;;;14.82;8.88;;;4.70;99.90;;;;;;4976628;28;20194;-53
2020/12/15 05:01:27;;;;;;;9.25;7.60;;;4.70;99.90;;;;;;4976412;28;20211;-48
2020/12/15 05:04:13;;;;;;;10.85;6.93;;;4.70;99.90;;;;;;4976532;28;20202;-54
2020/12/15 05:06:55;;;;;;;10.27;6.97;;;4.80;99.90;;;;;;4976427;28;20219;-54
2020/12/15 05:09:33;;;;;;;16.55;9.48;;;4.80;99.90;;;;;;4976607;28;20195;-53
2020/12/15 05:12:04;;;;;;;12.55;9.63;;;4.70;99.90;;;;;;4976391;28;20179;-53
2020/12/15 05:14:37;;;;;;;11.50;9.07;;;4.70;99.90;;;;;;4976512;28;20604;-50
2020/12/15 05:17:05;;;;;;;11.85;9.30;;;4.70;99.90;;;;;;4976298;28;20246;-51
2020/12/15 05:19:56;;;;;;;13.57;9.30;;;4.70;99.90;;;;;;4993395;28;20195;-55
2020/12/15 05:22:40;;;;;;;14.57;9.32;;;4.60;99.90;;;;;;4977157;28;20210;-54
2020/12/15 05:25:08;;;;;;;13.55;8.70;;;4.60;99.90;;;;;;4976851;28;20779;-54
2020/12/15 05:27:43;;;;;;;15.10;10.13;;;4.70;99.90;;;;;;4976827;28;20214;-56
2020/12/15 05:30:17;;;;;;;11.32;8.15;;;4.70;99.90;;;;;;4977008;28;20194;-55
2020/12/15 05:33:15;;;;;;;12.00;8.45;;;4.70;99.90;;;;;;4970739;28;20253;-57
2020/12/15 05:36:00;;;;;;;13.35;10.48;;;4.70;99.90;;;;;;4976507;28;20218;-58
2020/12/15 05:39:07;;;;;;;15.90;9.60;;;4.80;99.90;;;;;;4976389;28;20258;-56
2020/12/15 05:42:08;;;;;;;9.40;7.93;;;4.80;99.90;;;;;;4975673;28;20274;-53
2020/12/15 05:44:39;;;;;;;16.70;9.90;;;4.90;99.90;;;;;;4975585;28;20209;-54
2020/12/15 05:47:12;;;;;;;16.08;8.23;;;4.90;99.90;;;;;;4975600;28;20226;-54
2020/12/15 05:49:55;;;;;;;10.65;8.90;;;4.80;99.90;;;;;;4975478;28;20269;-50
2020/12/15 05:52:27;;;;;;;11.23;7.75;;;4.80;99.90;;;;;;4992837;28;20254;-50
2020/12/15 05:55:06;;;;;;;10.15;8.77;;;4.90;99.90;;;;;;4993007;28;20250;-57
2020/12/15 05:57:33;;;;;;;11.05;7.65;;;4.90;99.90;;;;;;4992926;28;20193;-53
2020/12/15 06:00:08;;;;;;;13.88;8.27;;;5.00;99.90;;;;;;4992862;28;20708;-53
2020/12/15 06:02:39;;;;;;;13.75;8.63;;;5.00;99.90;;;;;;4992809;28;20644;-52
2020/12/15 06:05:06;;;;;;;13.05;8.50;;;5.00;99.90;;;;;;4992836;28;20266;-52
2020/12/15 06:07:35;;;;;;;12.80;9.60;;;5.10;99.90;;;;;;4992444;28;20266;-55
2020/12/15 06:10:04;;;;;;;12.40;8.25;;;5.10;99.90;;;;;;4993004;28;20604;-52
2020/12/15 06:12:32;;;;;;;14.75;9.38;;;5.10;99.90;;;;;;4992483;28;20190;-55
2020/12/15 06:14:59;;;;;;;11.80;8.13;;;5.10;99.90;;;;;;4992954;28;20175;-55
2020/12/15 06:17:27;;;;;;;12.25;8.38;;;5.20;99.90;;;;;;4992655;28;20230;-51
2020/12/15 06:19:57;;;;;;;12.68;8.02;;;5.10;99.90;;;;;;4992974;28;20261;-55
2020/12/15 06:22:25;;;;;;;13.70;9.05;;;5.20;99.90;;;;;;4992458;28;20249;-53
2020/12/15 06:24:58;;;;;;;17.42;9.63;;;5.20;99.90;;;;;;4992669;28;20191;-51
2020/12/15 06:27:30;;;;;;;11.98;8.50;;;5.20;99.90;;;;;;4993409;28;20187;-53
2020/12/15 06:29:58;;;;;;;12.15;7.78;;;5.10;99.90;;;;;;4992190;28;20190;-57
2020/12/15 06:32:25;;;;;;;15.93;9.98;;;5.10;99.90;;;;;;4992112;28;20178;-52
2020/12/15 06:34:54;;;;;;;16.45;10.00;;;5.10;99.90;;;;;;4992610;28;20468;-54
2020/12/15 06:37:23;;;;;;;16.98;9.02;;;5.20;99.90;;;;;;4992770;28;20190;-51
2020/12/15 06:39:56;;;;;;;14.25;9.23;;;5.20;99.90;;;;;;4992123;28;20179;-52
2020/12/15 06:42:24;;;;;;;12.80;7.63;;;5.20;99.90;;;;;;4991995;28;20194;-55
2020/12/15 06:45:04;;;;;;;17.02;11.27;;;5.30;99.90;;;;;;4991854;28;20186;-51
2020/12/15 06:47:32;;;;;;;14.50;10.30;;;5.30;99.90;;;;;;4992176;28;20634;-55
2020/12/15 06:50:14;;;;;;;13.65;9.18;;;5.20;99.90;;;;;;5007893;23;20210;-81
2020/12/15 06:52:41;;;;;;;14.00;8.05;;;5.30;99.90;;;;;;5006161;28;20171;-79
2020/12/15 06:55:10;;;;;;;14.02;11.00;;;5.40;99.90;;;;;;4988070;28;20233;-81
2020/12/15 06:57:39;;;;;;;13.63;9.80;;;5.40;99.90;;;;;;5005288;28;20556;-80
2020/12/15 07:00:08;;;;;;;9.68;8.40;;;5.40;99.90;;;;;;4992347;28;20660;-81
2020/12/15 07:02:36;;;;;;;11.65;7.35;;;5.40;99.90;;;;;;5004949;28;20594;-81
2020/12/15 07:05:16;;;;;;;13.07;8.90;;;5.50;99.90;;;;;;5004970;28;20238;-81
2020/12/15 07:07:48;;;;;;;12.55;8.43;;;5.40;99.90;;;;;;5004586;28;20175;-79
2020/12/15 07:10:18;;;;;;;19.58;10.85;;;5.40;99.90;;;;;;5006317;28;20222;-81
2020/12/15 07:12:47;;;;;;;13.10;8.63;;;5.50;99.90;;;;;;5005546;28;20175;-81
2020/12/15 07:15:16;;;;;;;17.30;10.57;;;5.40;99.90;;;;;;4985794;28;20202;-80
2020/12/15 07:17:47;;;;;;;15.80;9.88;;;5.50;99.90;;;;;;4986518;28;20183;-81
2020/12/15 07:20:16;;;;;;;12.43;7.22;;;5.40;99.90;;;;;;4983753;28;20207;-81
2020/12/15 07:22:44;;;;;;;16.73;11.63;;;5.40;99.90;;;;;;4984304;28;20524;-80
2020/12/15 07:25:12;;;;;;;12.45;8.55;;;5.40;99.90;;;;;;4986124;28;20187;-81
2020/12/15 07:27:41;;;;;;;13.05;9.35;;;5.40;99.90;;;;;;4966993;28;20179;-81
2020/12/15 07:30:11;;;;;;;11.45;9.82;;;5.30;99.90;;;;;;4968427;28;20215;-79
2020/12/15 07:32:39;;;;;;;12.18;8.48;;;5.30;99.90;;;;;;4993609;28;20183;-79
2020/12/15 07:35:09;;;;;;;14.90;10.77;;;5.30;99.90;;;;;;4989416;28;20677;-80
2020/12/15 07:37:41;;;;;;;11.82;7.78;;;5.30;99.90;;;;;;4973293;28;20210;-80
2020/12/15 07:40:10;;;;;;;20.75;10.35;;;5.30;99.90;;;;;;5007223;28;20239;-79
2020/12/15 07:42:38;;;;;;;12.00;9.50;;;5.40;99.90;;;;;;5008321;28;20201;-79
2020/12/15 07:45:08;;;;;;;14.32;9.52;;;5.30;99.90;;;;;;5007741;28;20201;-81
2020/12/15 07:47:40;;;;;;;15.05;10.52;;;5.30;99.90;;;;;;5007953;28;20229;-81
2020/12/15 07:50:08;;;;;;;13.45;8.90;;;5.40;99.90;;;;;;4988703;28;20324;-80
2020/12/15 07:52:37;;;;;;;16.02;11.10;;;5.50;99.90;;;;;;4985307;28;20180;-80
2020/12/15 07:55:08;;;;;;;9.38;7.95;;;5.50;99.90;;;;;;4986636;28;20275;-82
2020/12/15 07:57:37;;;;;;;12.70;10.00;;;5.50;99.90;;;;;;4968714;28;20195;-82
2020/12/15 08:00:11;;;;;;;13.02;9.35;;;5.50;99.90;;;;;;4986319;28;20207;-80
2020/12/15 08:02:41;;;;;;;13.90;10.70;;;5.60;99.90;;;;;;4978883;28;20198;-81
2020/12/15 08:05:15;;;;;;;20.33;8.77;;;5.60;99.90;;;;;;4994852;28;20203;-84
2020/12/15 08:07:46;;;;;;;18.25;11.82;;;5.60;99.90;;;;;;5013409;28;20175;-82
2020/12/15 08:10:15;;;;;;;12.85;9.32;;;5.60;99.90;;;;;;5012073;28;20217;-78
2020/12/15 08:12:42;;;;;;;12.57;8.65;;;5.60;99.90;;;;;;4997571;28;20198;-79
2020/12/15 08:15:13;;;;;;;16.92;10.23;;;5.70;99.90;;;;;;5009583;28;20194;-78
2020/12/15 08:17:46;;;;;;;12.48;8.27;;;5.70;99.90;;;;;;5004168;28;20222;-79
2020/12/15 08:20:15;;;;;;;16.02;10.57;;;5.90;99.90;;;;;;4988151;28;20227;-79
2020/12/15 08:22:45;;;;;;;12.50;10.45;;;5.90;99.90;;;;;;5012032;28;20180;-77
2020/12/15 08:25:14;;;;;;;16.50;9.15;;;5.90;99.90;;;;;;5018833;28;20187;-78
2020/12/15 08:27:51;;;;;;;13.75;9.27;;;6.00;99.90;;;;;;4993992;28;20206;-79
2020/12/15 08:30:21;;;;;;;12.82;8.63;;;6.00;99.90;;;;;;5003061;28;20203;-78
2020/12/15 08:32:51;;;;;;;17.08;10.90;;;6.00;99.90;;;;;;5015013;28;20191;-79
2020/12/15 08:35:22;;;;;;;13.75;8.57;;;6.10;99.90;;;;;;5015808;28;20202;-79
2020/12/15 08:37:56;;;;;;;14.30;10.60;;;6.20;99.90;;;;;;5013998;28;20217;-79
2020/12/15 08:40:25;;;;;;;13.15;8.30;;;6.30;99.90;;;;;;5014379;28;20200;-78
2020/12/15 08:42:58;;;;;;;14.68;9.90;;;6.30;99.90;;;;;;5014815;28;20183;-79
2020/12/15 08:45:27;;;;;;;17.48;11.30;;;6.40;99.90;;;;;;5012077;28;20218;-80
2020/12/15 08:47:56;;;;;;;15.43;9.55;;;6.30;99.90;;;;;;4993926;28;20206;-79
2020/12/15 08:50:26;;;;;;;13.63;10.00;;;6.40;99.90;;;;;;5011149;28;20211;-79
2020/12/15 08:53:07;;;;;;;15.98;10.05;;;6.40;99.90;;;;;;4994178;28;20214;-80
2020/12/15 08:55:35;;;;;;;12.18;9.23;;;6.50;99.90;;;;;;5014682;28;20187;-79
2020/12/15 08:58:05;;;;;;;15.77;11.05;;;6.40;99.90;;;;;;5016610;28;20243;-81
2020/12/15 09:00:35;;;;;;;12.85;9.40;;;6.50;99.90;;;;;;5014647;28;20269;-78
2020/12/15 09:03:06;;;;;;;17.05;11.30;;;6.50;99.90;;;;;;5015604;28;20168;-79
2020/12/15 09:05:44;;;;;;;10.90;9.45;;;6.50;99.90;;;;;;4998168;28;20211;-79
2020/12/15 09:08:12;;;;;;;13.55;9.35;;;6.50;99.90;;;;;;5015865;28;20203;-80
2020/12/15 09:10:39;;;;;;;12.48;10.90;;;6.50;99.90;;;;;;5015302;28;20211;-80
2020/12/15 09:13:09;;;;;;;14.38;11.10;;;6.50;99.90;;;;;;4998332;28;20193;-79
2020/12/15 09:15:52;;;;;;;17.55;10.65;;;6.60;99.90;;;;;;4998748;28;20203;-79
2020/12/15 09:18:33;;;;;;;12.68;10.70;;;6.70;99.90;;;;;;4996151;28;20180;-79
2020/12/15 09:21:11;;;;;;;11.38;6.82;;;6.70;99.90;;;;;;4998600;28;20293;-79
2020/12/15 09:23:39;;;;;;;15.32;10.77;;;6.60;99.90;;;;;;4982036;28;20174;-80
2020/12/15 09:26:07;;;;;;;13.02;8.85;;;6.60;99.90;;;;;;4990481;28;20218;-77
2020/12/15 09:28:34;;;;;;;18.02;10.00;;;6.60;99.90;;;;;;4984021;28;20188;-79
2020/12/15 09:31:02;;;;;;;13.30;9.20;;;6.80;99.90;;;;;;4989566;28;20211;-79
2020/12/15 09:33:30;;;;;;;14.50;8.85;;;6.80;99.90;;;;;;4998580;28;20195;-80
2020/12/15 09:35:57;;;;;;;13.55;10.05;;;6.80;99.90;;;;;;4996940;28;20227;-81
2020/12/15 09:38:24;;;;;;;14.00;9.13;;;7.00;99.90;;;;;;4993071;28;20219;-79
2020/12/15 09:40:52;;;;;;;11.15;7.28;;;7.20;99.90;;;;;;4976584;28;20224;-79
2020/12/15 09:43:20;;;;;;;18.10;9.30;;;7.30;99.90;;;;;;4973629;28;20611;-79
2020/12/15 09:45:50;;;;;;;11.18;8.85;;;7.40;99.90;;;;;;4994618;28;20200;-80
2020/12/15 09:48:19;;;;;;;14.32;8.57;;;7.30;99.90;;;;;;4993967;28;20179;-80
2020/12/15 09:50:46;;;;;;;12.10;9.70;;;7.30;99.90;;;;;;4995290;28;20213;-80
2020/12/15 09:53:14;;;;;;;12.45;8.60;;;7.40;99.90;;;;;;4994892;28;20243;-84
2020/12/15 09:55:42;;;;;;;17.17;11.05;;;7.30;99.90;;;;;;4990850;28;20183;-81
2020/12/15 09:58:09;;;;;;;15.55;10.18;;;7.20;99.90;;;;;;4988227;28;20646;-80
2020/12/15 10:00:36;;;;;;;13.60;8.52;;;7.20;99.90;;;;;;4991740;28;20222;-80
2020/12/15 10:03:04;;;;;;;14.82;10.55;;;7.20;99.90;;;;;;4990871;28;20192;-81
2020/12/15 10:05:47;;;;;;;16.10;11.13;;;7.10;99.90;;;;;;4993443;28;20190;-81
2020/12/15 10:08:14;;;;;;;11.27;8.60;;;7.10;99.90;;;;;;4977952;28;20207;-81
2020/12/15 10:10:42;;;;;;;18.73;10.52;;;7.00;99.90;;;;;;4995210;28;20592;-81
2020/12/15 10:13:10;;;;;;;14.00;9.40;;;7.10;99.90;;;;;;4970121;28;20211;-81
2020/12/15 10:15:38;;;;;;;11.77;9.02;;;7.20;99.90;;;;;;4993397;28;20527;-81
2020/12/15 10:18:09;;;;;;;20.30;11.32;;;7.10;99.90;;;;;;4978207;28;20199;-79
2020/12/15 10:20:36;;;;;;;18.02;10.48;;;7.20;99.90;;;;;;4976486;28;20238;-80
2020/12/15 10:23:07;;;;;;;15.05;10.77;;;7.00;99.90;;;;;;4994299;28;20188;-81
2020/12/15 10:26:04;;;;;;;;;;;;;;;;;;;;;
2020/12/15 10:29:47;;;;;;;12.40;8.63;;;6.80;99.90;;;;;;5000427;28;20234;-81
2020/12/15 10:37:35;;;;;;;14.52;8.52;;;6.90;99.90;;;;;;5015754;28;20157;-79
2020/12/15 10:40:33;;;;;;;8.95;7.88;;;7.00;99.90;;;;;;5015127;28;20203;-80
2020/12/15 10:43:21;;;;;;;11.32;7.68;;;7.10;99.90;;;;;;4987362;28;20270;-79
2020/12/15 10:45:50;;;;;;;15.52;9.82;;;7.10;99.90;;;;;;5008523;28;20198;-80
2020/12/15 10:48:21;;;;;;;16.55;9.68;;;7.00;99.90;;;;;;5009740;28;20190;-80
2020/12/15 10:50:50;;;;;;;12.20;9.73;;;7.10;99.90;;;;;;5009110;28;20233;-80
2020/12/15 10:53:22;;;;;;;16.13;10.75;;;7.00;99.90;;;;;;4993288;28;20202;-80
2020/12/15 10:55:51;;;;;;;14.43;9.07;;;7.10;99.90;;;;;;4991198;28;20215;-79
2020/12/15 10:58:19;;;;;;;16.20;10.75;;;7.10;99.90;;;;;;5011188;28;20181;-80
2020/12/15 11:00:54;;;;;;;14.68;9.48;;;7.20;99.90;;;;;;4992355;28;20230;-79
2020/12/15 11:03:22;;;;;;;15.68;9.90;;;7.10;99.90;;;;;;5009921;28;20198;-81
2020/12/15 11:05:49;;;;;;;11.13;8.80;;;7.10;99.90;;;;;;5009846;28;20179;-81
2020/12/15 11:08:16;;;;;;;16.67;9.65;;;7.20;99.90;;;;;;5010872;28;20214;-80
2020/12/15 11:10:59;;;;;;;14.90;9.23;;;7.20;99.90;;;;;;4985878;28;20301;-79
2020/12/15 11:13:26;;;;;;;11.90;8.52;;;7.20;99.90;;;;;;5010730;28;20201;-81
2020/12/15 11:15:58;;;;;;;14.77;11.35;;;7.30;99.90;;;;;;5012332;28;20171;-80
2020/12/15 11:18:29;;;;;;;17.45;10.35;;;7.30;99.90;;;;;;5013689;28;20179;-79
2020/12/15 11:21:02;;;;;;;20.30;10.60;;;7.50;99.90;;;;;;4994351;28;20254;-81
2020/12/15 11:23:31;;;;;;;16.55;8.98;;;7.60;99.90;;;;;;5011502;28;20182;-81
2020/12/15 11:26:18;;;;;;;13.60;9.57;;;7.60;99.90;;;;;;5011911;28;20264;-81
2020/12/15 11:28:48;;;;;;;17.45;9.32;;;7.80;99.90;;;;;;5011262;28;20186;-80
2020/12/15 11:31:18;;;;;;;14.18;8.68;;;7.80;99.90;;;;;;5011463;28;20226;-80
2020/12/15 11:33:47;;;;;;;19.50;9.07;;;7.60;99.90;;;;;;5014252;28;20179;-78
2020/12/15 11:36:15;;;;;;;12.38;9.32;;;7.70;99.90;;;;;;5006909;28;20186;-80
2020/12/15 11:38:44;;;;;;;14.45;8.98;;;7.70;99.90;;;;;;5013188;28;20178;-78
2020/12/15 11:41:11;;;;;;;11.82;9.15;;;7.80;99.90;;;;;;4997929;28;20233;-79
2020/12/15 11:43:39;;;;;;;13.73;8.88;;;7.80;99.90;;;;;;4998916;28;20194;-79
2020/12/15 11:46:07;;;;;;;10.95;9.35;;;7.80;99.90;;;;;;4998943;28;20179;-77
2020/12/15 11:48:34;;;;;;;11.43;9.52;;;7.80;99.90;;;;;;5014822;28;20254;-79
2020/12/15 11:51:04;;;;;;;13.10;8.50;;;7.90;99.90;;;;;;4999523;28;20226;-82
2020/12/15 11:53:32;;;;;;;13.23;9.27;;;7.80;99.90;;;;;;5017313;28;20155;-81
2020/12/15 11:55:59;;;;;;;15.25;7.80;;;8.00;99.90;;;;;;5016984;28;20202;-79
2020/12/15 11:58:39;;;;;;;9.30;6.78;;;8.10;99.90;;;;;;4994023;28;20202;-81
2020/12/15 12:01:08;;;;;;;18.20;9.35;;;8.30;99.90;;;;;;5006589;28;20205;-80
2020/12/15 12:03:35;;;;;;;17.02;9.00;;;8.40;99.90;;;;;;5006603;28;20175;-80
2020/12/15 12:06:02;;;;;;;10.57;7.15;;;8.40;99.90;;;;;;5007066;28;20175;-81
2020/12/15 12:08:30;;;;;;;13.65;7.38;;;8.40;99.90;;;;;;5007452;28;20175;-81
2020/12/15 12:11:00;;;;;;;18.20;10.82;;;8.40;99.90;;;;;;5006326;28;20226;-82
2020/12/15 12:13:27;;;;;;;13.93;9.02;;;8.50;99.90;;;;;;4989619;28;20231;-78
2020/12/15 12:15:56;;;;;;;19.17;10.18;;;8.50;99.90;;;;;;5008371;28;20167;-79
2020/12/15 12:18:23;;;;;;;13.80;9.10;;;8.60;99.90;;;;;;5005703;28;20189;-78
2020/12/15 12:20:50;;;;;;;14.50;7.93;;;8.60;99.90;;;;;;5008419;28;20210;-79
2020/12/15 12:23:17;;;;;;;13.00;8.73;;;8.60;99.90;;;;;;5007571;28;20194;-81
2020/12/15 12:25:46;;;;;;;10.00;7.38;;;8.50;99.90;;;;;;5005587;28;20191;-80
2020/12/15 12:28:13;;;;;;;14.05;9.90;;;8.40;99.90;;;;;;5007909;28;20191;-80
2020/12/15 12:30:40;;;;;;;13.80;8.73;;;8.20;99.90;;;;;;5012841;28;20203;-80
2020/12/15 12:33:08;;;;;;;10.60;7.82;;;8.10;99.90;;;;;;5007693;28;20668;-79
2020/12/15 12:35:36;;;;;;;9.75;7.65;;;8.20;99.90;;;;;;5008459;28;20205;-82
2020/12/15 12:38:03;;;;;;;13.38;8.10;;;8.30;99.90;;;;;;5008990;28;20239;-82
2020/12/15 12:40:30;;;;;;;11.82;8.93;;;8.40;99.90;;;;;;5010283;28;20302;-78
2020/12/15 12:43:01;;;;;;;15.80;9.02;;;8.40;99.90;;;;;;5010470;28;20195;-80
2020/12/15 12:45:29;;;;;;;13.65;8.88;;;8.50;99.90;;;;;;4999078;28;20200;-79
2020/12/15 12:47:57;;;;;;;11.60;6.60;;;8.50;99.90;;;;;;4997767;28;20273;-78
2020/12/15 12:50:28;;;;;;;14.77;7.82;;;8.50;99.90;;;;;;5028548;23;20336;-79
2020/12/15 12:54:15;;;;;;;;;;;;;;;;;;;;;
2020/12/15 12:58:05;;;;;;;11.07;7.97;;;8.50;99.90;;;;;;4925515;28;20206;-79
2020/12/15 13:01:50;;;;;;;10.15;7.18;;;8.50;99.90;;;;;;4921308;29;20228;-79
2020/12/15 13:04:23;;;;;;;9.32;6.18;;;8.60;99.90;;;;;;4998867;28;20198;-82
2020/12/15 13:06:52;;;;;;;14.35;7.43;;;8.70;99.90;;;;;;5018915;28;20178;-81
2020/12/15 13:09:20;;;;;;;16.35;9.15;;;8.70;99.90;;;;;;5032455;28;20254;-84
2020/12/15 13:11:51;;;;;;;9.32;6.95;;;8.60;99.90;;;;;;5029819;28;20282;-83
2020/12/15 13:14:19;;;;;;;9.82;5.75;;;8.40;99.90;;;;;;5029349;28;20186;-82
2020/12/15 13:16:51;;;;;;;10.70;7.50;;;8.40;99.90;;;;;;5030685;28;20182;-81
2020/12/15 13:19:18;;;;;;;11.90;7.50;;;8.30;99.90;;;;;;5031264;28;20189;-80
2020/12/15 13:21:46;;;;;;;11.23;7.65;;;8.30;99.90;;;;;;5029455;28;20290;-80